sensor_id;sensor_type;location;lat;lon;timestamp;temperature;humidity
36352;DHT22;22382;44.768;17.206;2023-02-01T00:00:33;2.80;99.90
36352;DHT22;22382;44.768;17.206;2023-02-01T00:03:01;2.70;99.90
36352;DHT22;22382;44.768;17.206;2023-02-01T00:05:28;2.70;99.90
36352;DHT22;22382;44.768;17.206;2023-02-01T00:07:55;2.80;99.90
36352;DHT22;22382;44.768;17.206;2023-02-01T00:10:22;2.80;99.90
36352;DHT22;22382;44.768;17.206;2023-02-01T00:12:50;2.90;99.90
36352;DHT22;22382;44.768;17.206;2023-02-01T00:15:17;2.90;99.90
36352;DHT22;22382;44.768;17.206;2023-02-01T00:17:44;3.00;99.90
36352;DHT22;22382;44.768;17.206;2023-02-01T00:20:12;3.00;99.90
36352;DHT22;22382;44.768;17.206;2023-02-01T00:22:39;3.10;99.90
36352;DHT22;22382;44.768;17.206;2023-02-01T00:25:06;3.10;99.90
36352;DHT22;22382;44.768;17.206;2023-02-01T00:27:33;3.20;99.90
36352;DHT22;22382;44.768;17.206;2023-02-01T00:30:01;3.10;99.90
36352;DHT22;22382;44.768;17.206;2023-02-01T00:32:28;3.00;99.90
36352;DHT22;22382;44.768;17.206;2023-02-01T00:34:55;3.10;99.90
36352;DHT22;22382;44.768;17.206;2023-02-01T00:37:22;3.10;99.90
36352;DHT22;22382;44.768;17.206;2023-02-01T00:39:49;3.00;99.90
36352;DHT22;22382;44.768;17.206;2023-02-01T00:42:17;3.00;99.90
36352;DHT22;22382;44.768;17.206;2023-02-01T00:44:44;2.90;99.90
36352;DHT22;22382;44.768;17.206;2023-02-01T00:47:11;2.90;99.90
36352;DHT22;22382;44.768;17.206;2023-02-01T00:49:38;2.90;99.90
36352;DHT22;22382;44.768;17.206;2023-02-01T00:52:05;2.80;99.90
36352;DHT22;22382;44.768;17.206;2023-02-01T00:54:33;2.80;99.90
36352;DHT22;22382;44.768;17.206;2023-02-01T00:57:00;2.80;99.90
36352;DHT22;22382;44.768;17.206;2023-02-01T00:59:27;2.80;99.90
36352;DHT22;22382;44.768;17.206;2023-02-01T01:01:54;2.80;99.90
36352;DHT22;22382;44.768;17.206;2023-02-01T01:04:21;2.90;99.90
36352;DHT22;22382;44.768;17.206;2023-02-01T01:06:48;2.90;99.90
36352;DHT22;22382;44.768;17.206;2023-02-01T01:09:16;2.90;99.90
36352;DHT22;22382;44.768;17.206;2023-02-01T01:11:43;3.00;99.90
36352;DHT22;22382;44.768;17.206;2023-02-01T01:14:10;3.00;99.90
36352;DHT22;22382;44.768;17.206;2023-02-01T01:16:38;3.00;99.90
36352;DHT22;22382;44.768;17.206;2023-02-01T01:19:05;3.00;99.90
36352;DHT22;22382;44.768;17.206;2023-02-01T01:21:32;3.00;99.90
36352;DHT22;22382;44.768;17.206;2023-02-01T01:23:59;3.00;99.90
36352;DHT22;22382;44.768;17.206;2023-02-01T01:26:29;3.00;99.90
36352;DHT22;22382;44.768;17.206;2023-02-01T01:28:57;3.00;99.90
36352;DHT22;22382;44.768;17.206;2023-02-01T01:31:25;2.90;99.90
36352;DHT22;22382;44.768;17.206;2023-02-01T01:33:55;2.90;99.90
36352;DHT22;22382;44.768;17.206;2023-02-01T01:36:23;2.80;99.90
36352;DHT22;22382;44.768;17.206;2023-02-01T01:38:50;2.70;99.90
36352;DHT22;22382;44.768;17.206;2023-02-01T01:41:23;2.60;99.90
36352;DHT22;22382;44.768;17.206;2023-02-01T01:43:53;2.60;99.90
36352;DHT22;22382;44.768;17.206;2023-02-01T01:46:26;2.60;99.90
36352;DHT22;22382;44.768;17.206;2023-02-01T01:49:04;2.50;99.90
36352;DHT22;22382;44.768;17.206;2023-02-01T01:51:36;2.40;99.90
36352;DHT22;22382;44.768;17.206;2023-02-01T01:54:18;2.40;99.90
36352;DHT22;22382;44.768;17.206;2023-02-01T01:56:50;2.30;99.90
36352;DHT22;22382;44.768;17.206;2023-02-01T01:59:20;2.20;99.90
36352;DHT22;22382;44.768;17.206;2023-02-01T02:01:47;2.30;99.90
36352;DHT22;22382;44.768;17.206;2023-02-01T02:04:15;2.20;99.90
36352;DHT22;22382;44.768;17.206;2023-02-01T02:07:04;2.20;99.90
36352;DHT22;22382;44.768;17.206;2023-02-01T02:09:31;2.10;99.90
36352;DHT22;22382;44.768;17.206;2023-02-01T02:11:58;2.00;99.90
36352;DHT22;22382;44.768;17.206;2023-02-01T02:14:26;1.90;99.90
36352;DHT22;22382;44.768;17.206;2023-02-01T02:34:44;1.60;99.90
36352;DHT22;22382;44.768;17.206;2023-02-01T02:37:38;1.60;99.90
36352;DHT22;22382;44.768;17.206;2023-02-01T02:40:32;1.60;99.90
36352;DHT22;22382;44.768;17.206;2023-02-01T02:43:46;1.60;99.90
36352;DHT22;22382;44.768;17.206;2023-02-01T02:46:40;1.50;99.90
36352;DHT22;22382;44.768;17.206;2023-02-01T02:52:15;1.40;99.90
36352;DHT22;22382;44.768;17.206;2023-02-01T02:55:03;1.30;99.90
36352;DHT22;22382;44.768;17.206;2023-02-01T02:57:39;1.40;99.90
36352;DHT22;22382;44.768;17.206;2023-02-01T03:00:31;1.40;99.90
36352;DHT22;22382;44.768;17.206;2023-02-01T03:03:18;1.50;99.90
36352;DHT22;22382;44.768;17.206;2023-02-01T03:06:04;1.50;99.90
36352;DHT22;22382;44.768;17.206;2023-02-01T03:08:35;1.50;99.90
36352;DHT22;22382;44.768;17.206;2023-02-01T03:11:06;1.40;99.90
36352;DHT22;22382;44.768;17.206;2023-02-01T03:16:40;1.40;99.90
36352;DHT22;22382;44.768;17.206;2023-02-01T03:19:20;1.30;99.90
36352;DHT22;22382;44.768;17.206;2023-02-01T03:22:03;1.20;99.90
36352;DHT22;22382;44.768;17.206;2023-02-01T03:25:03;1.10;99.90
36352;DHT22;22382;44.768;17.206;2023-02-01T03:27:43;1.00;99.90
36352;DHT22;22382;44.768;17.206;2023-02-01T03:30:46;0.90;99.90
36352;DHT22;22382;44.768;17.206;2023-02-01T03:33:20;0.90;99.90
36352;DHT22;22382;44.768;17.206;2023-02-01T03:38:52;1.00;99.90
36352;DHT22;22382;44.768;17.206;2023-02-01T03:46:32;0.70;99.90
36352;DHT22;22382;44.768;17.206;2023-02-01T03:49:05;0.80;99.90
36352;DHT22;22382;44.768;17.206;2023-02-01T03:51:33;0.70;99.90
36352;DHT22;22382;44.768;17.206;2023-02-01T03:54:04;0.70;99.90
36352;DHT22;22382;44.768;17.206;2023-02-01T03:56:34;0.70;99.90
36352;DHT22;22382;44.768;17.206;2023-02-01T03:59:03;0.70;99.90
36352;DHT22;22382;44.768;17.206;2023-02-01T04:01:31;0.70;99.90
36352;DHT22;22382;44.768;17.206;2023-02-01T04:03:58;0.70;99.90
36352;DHT22;22382;44.768;17.206;2023-02-01T04:06:25;0.70;99.90
36352;DHT22;22382;44.768;17.206;2023-02-01T04:08:53;0.60;99.90
36352;DHT22;22382;44.768;17.206;2023-02-01T04:11:20;0.60;99.90
36352;DHT22;22382;44.768;17.206;2023-02-01T04:13:47;0.70;99.90
36352;DHT22;22382;44.768;17.206;2023-02-01T04:16:14;0.70;99.90
36352;DHT22;22382;44.768;17.206;2023-02-01T04:18:41;0.70;99.90
36352;DHT22;22382;44.768;17.206;2023-02-01T04:21:08;0.70;99.90
36352;DHT22;22382;44.768;17.206;2023-02-01T04:23:35;0.70;99.90
36352;DHT22;22382;44.768;17.206;2023-02-01T04:26:04;0.60;99.90
36352;DHT22;22382;44.768;17.206;2023-02-01T04:28:32;0.50;99.90
36352;DHT22;22382;44.768;17.206;2023-02-01T04:30:59;0.60;99.90
36352;DHT22;22382;44.768;17.206;2023-02-01T04:33:26;0.50;99.90
36352;DHT22;22382;44.768;17.206;2023-02-01T04:35:53;0.50;99.90
36352;DHT22;22382;44.768;17.206;2023-02-01T04:38:21;0.40;99.90
36352;DHT22;22382;44.768;17.206;2023-02-01T04:40:48;0.40;99.90
36352;DHT22;22382;44.768;17.206;2023-02-01T04:43:17;0.50;99.90
36352;DHT22;22382;44.768;17.206;2023-02-01T04:45:48;0.40;99.90
36352;DHT22;22382;44.768;17.206;2023-02-01T04:48:17;0.50;99.90
36352;DHT22;22382;44.768;17.206;2023-02-01T04:50:45;0.40;99.90
36352;DHT22;22382;44.768;17.206;2023-02-01T04:53:14;0.40;99.90
36352;DHT22;22382;44.768;17.206;2023-02-01T04:55:43;0.40;99.90
36352;DHT22;22382;44.768;17.206;2023-02-01T04:58:10;0.40;99.90
36352;DHT22;22382;44.768;17.206;2023-02-01T05:00:37;0.30;99.90
36352;DHT22;22382;44.768;17.206;2023-02-01T05:03:05;0.30;99.90
36352;DHT22;22382;44.768;17.206;2023-02-01T05:05:32;0.30;99.90
36352;DHT22;22382;44.768;17.206;2023-02-01T05:07:59;0.30;99.90
36352;DHT22;22382;44.768;17.206;2023-02-01T05:10:26;0.40;99.90
36352;DHT22;22382;44.768;17.206;2023-02-01T05:12:54;0.30;99.90
36352;DHT22;22382;44.768;17.206;2023-02-01T05:15:39;0.30;99.90
36352;DHT22;22382;44.768;17.206;2023-02-01T05:18:06;0.40;99.90
36352;DHT22;22382;44.768;17.206;2023-02-01T05:20:33;0.50;99.90
36352;DHT22;22382;44.768;17.206;2023-02-01T05:23:00;0.50;99.90
36352;DHT22;22382;44.768;17.206;2023-02-01T05:25:28;0.50;99.90
36352;DHT22;22382;44.768;17.206;2023-02-01T05:27:55;0.50;99.90
36352;DHT22;22382;44.768;17.206;2023-02-01T05:30:22;0.50;99.90
36352;DHT22;22382;44.768;17.206;2023-02-01T05:32:51;0.50;99.90
36352;DHT22;22382;44.768;17.206;2023-02-01T05:35:19;0.50;99.90
36352;DHT22;22382;44.768;17.206;2023-02-01T05:37:46;0.50;99.90
36352;DHT22;22382;44.768;17.206;2023-02-01T05:40:13;0.50;99.90
36352;DHT22;22382;44.768;17.206;2023-02-01T05:42:40;0.50;99.90
36352;DHT22;22382;44.768;17.206;2023-02-01T05:45:08;0.50;99.90
36352;DHT22;22382;44.768;17.206;2023-02-01T05:47:35;0.40;99.90
36352;DHT22;22382;44.768;17.206;2023-02-01T05:50:04;0.50;99.90
36352;DHT22;22382;44.768;17.206;2023-02-01T05:52:31;0.50;99.90
36352;DHT22;22382;44.768;17.206;2023-02-01T05:54:59;0.50;99.90
36352;DHT22;22382;44.768;17.206;2023-02-01T05:57:26;0.40;99.90
36352;DHT22;22382;44.768;17.206;2023-02-01T05:59:53;0.50;99.90
36352;DHT22;22382;44.768;17.206;2023-02-01T06:02:20;0.40;99.90
36352;DHT22;22382;44.768;17.206;2023-02-01T06:04:48;0.40;99.90
36352;DHT22;22382;44.768;17.206;2023-02-01T06:07:15;0.40;99.90
36352;DHT22;22382;44.768;17.206;2023-02-01T06:09:43;0.40;99.90
36352;DHT22;22382;44.768;17.206;2023-02-01T06:12:10;0.50;99.90
36352;DHT22;22382;44.768;17.206;2023-02-01T06:14:37;0.60;99.90
36352;DHT22;22382;44.768;17.206;2023-02-01T06:17:04;0.70;99.90
36352;DHT22;22382;44.768;17.206;2023-02-01T06:19:33;0.70;99.90
36352;DHT22;22382;44.768;17.206;2023-02-01T06:22:00;0.80;99.90
36352;DHT22;22382;44.768;17.206;2023-02-01T06:24:27;0.80;99.90
36352;DHT22;22382;44.768;17.206;2023-02-01T06:26:54;0.80;99.90
36352;DHT22;22382;44.768;17.206;2023-02-01T06:29:21;0.80;99.90
36352;DHT22;22382;44.768;17.206;2023-02-01T06:31:48;0.80;99.90
36352;DHT22;22382;44.768;17.206;2023-02-01T06:34:16;0.80;99.90
36352;DHT22;22382;44.768;17.206;2023-02-01T06:36:43;0.80;99.90
36352;DHT22;22382;44.768;17.206;2023-02-01T06:39:10;0.80;99.90
36352;DHT22;22382;44.768;17.206;2023-02-01T06:41:39;0.70;99.90
36352;DHT22;22382;44.768;17.206;2023-02-01T06:44:06;0.70;99.90
36352;DHT22;22382;44.768;17.206;2023-02-01T06:46:33;0.70;99.90
36352;DHT22;22382;44.768;17.206;2023-02-01T06:49:01;0.80;99.90
36352;DHT22;22382;44.768;17.206;2023-02-01T06:51:28;0.80;99.90
36352;DHT22;22382;44.768;17.206;2023-02-01T06:53:56;0.90;99.90
36352;DHT22;22382;44.768;17.206;2023-02-01T06:56:23;1.00;99.90
36352;DHT22;22382;44.768;17.206;2023-02-01T06:58:51;1.00;99.90
36352;DHT22;22382;44.768;17.206;2023-02-01T07:01:18;1.10;99.90
36352;DHT22;22382;44.768;17.206;2023-02-01T07:03:49;1.10;99.90
36352;DHT22;22382;44.768;17.206;2023-02-01T07:06:18;1.20;99.90
36352;DHT22;22382;44.768;17.206;2023-02-01T07:08:45;1.40;99.90
36352;DHT22;22382;44.768;17.206;2023-02-01T07:11:14;1.40;99.90
36352;DHT22;22382;44.768;17.206;2023-02-01T07:13:41;1.40;99.90
36352;DHT22;22382;44.768;17.206;2023-02-01T07:16:14;1.50;99.90
36352;DHT22;22382;44.768;17.206;2023-02-01T07:18:42;1.60;99.90
36352;DHT22;22382;44.768;17.206;2023-02-01T07:21:10;1.70;99.90
36352;DHT22;22382;44.768;17.206;2023-02-01T07:23:37;1.80;99.90
36352;DHT22;22382;44.768;17.206;2023-02-01T07:26:07;1.90;99.90
36352;DHT22;22382;44.768;17.206;2023-02-01T07:28:35;2.00;99.90
36352;DHT22;22382;44.768;17.206;2023-02-01T07:31:11;2.00;99.90
36352;DHT22;22382;44.768;17.206;2023-02-01T07:33:40;2.10;99.90
36352;DHT22;22382;44.768;17.206;2023-02-01T07:36:10;2.20;99.90
36352;DHT22;22382;44.768;17.206;2023-02-01T07:38:37;2.40;99.90
36352;DHT22;22382;44.768;17.206;2023-02-01T07:41:06;2.60;99.90
36352;DHT22;22382;44.768;17.206;2023-02-01T07:43:33;2.70;99.90
36352;DHT22;22382;44.768;17.206;2023-02-01T07:46:01;2.90;99.90
36352;DHT22;22382;44.768;17.206;2023-02-01T07:48:29;3.10;99.90
36352;DHT22;22382;44.768;17.206;2023-02-01T07:51:00;3.30;99.90
36352;DHT22;22382;44.768;17.206;2023-02-01T07:53:29;3.40;97.20
36352;DHT22;22382;44.768;17.206;2023-02-01T07:55:56;3.60;95.60
36352;DHT22;22382;44.768;17.206;2023-02-01T07:58:24;3.80;95.90
36352;DHT22;22382;44.768;17.206;2023-02-01T08:00:52;3.90;95.30
36352;DHT22;22382;44.768;17.206;2023-02-01T08:03:37;4.10;92.00
36352;DHT22;22382;44.768;17.206;2023-02-01T08:06:05;4.20;92.60
36352;DHT22;22382;44.768;17.206;2023-02-01T08:08:33;4.40;90.90
36352;DHT22;22382;44.768;17.206;2023-02-01T08:11:03;4.50;90.20
36352;DHT22;22382;44.768;17.206;2023-02-01T08:13:31;4.60;90.30
36352;DHT22;22382;44.768;17.206;2023-02-01T08:16:00;4.70;86.10
36352;DHT22;22382;44.768;17.206;2023-02-01T08:18:28;4.80;86.30
36352;DHT22;22382;44.768;17.206;2023-02-01T08:20:55;4.90;86.50
36352;DHT22;22382;44.768;17.206;2023-02-01T08:23:22;4.90;83.50
36352;DHT22;22382;44.768;17.206;2023-02-01T08:25:50;4.90;83.20
36352;DHT22;22382;44.768;17.206;2023-02-01T08:28:17;5.00;83.30
36352;DHT22;22382;44.768;17.206;2023-02-01T08:30:44;5.20;83.50
36352;DHT22;22382;44.768;17.206;2023-02-01T08:33:11;5.30;82.30
36352;DHT22;22382;44.768;17.206;2023-02-01T08:35:39;5.40;81.00
36352;DHT22;22382;44.768;17.206;2023-02-01T08:38:10;5.50;80.80
36352;DHT22;22382;44.768;17.206;2023-02-01T08:40:37;5.60;80.30
36352;DHT22;22382;44.768;17.206;2023-02-01T08:43:04;5.60;77.80
36352;DHT22;22382;44.768;17.206;2023-02-01T08:45:31;5.60;76.40
36352;DHT22;22382;44.768;17.206;2023-02-01T08:47:59;5.70;77.70
36352;DHT22;22382;44.768;17.206;2023-02-01T08:50:26;5.80;76.50
36352;DHT22;22382;44.768;17.206;2023-02-01T08:52:54;5.90;75.60
36352;DHT22;22382;44.768;17.206;2023-02-01T08:55:21;6.00;75.60
36352;DHT22;22382;44.768;17.206;2023-02-01T08:57:48;6.10;74.20
36352;DHT22;22382;44.768;17.206;2023-02-01T09:00:16;6.20;73.20
36352;DHT22;22382;44.768;17.206;2023-02-01T09:02:45;6.30;71.30
36352;DHT22;22382;44.768;17.206;2023-02-01T09:05:12;6.40;70.70
36352;DHT22;22382;44.768;17.206;2023-02-01T09:07:43;6.60;71.30
36352;DHT22;22382;44.768;17.206;2023-02-01T09:10:10;6.80;69.60
36352;DHT22;22382;44.768;17.206;2023-02-01T09:12:37;6.90;69.10
36352;DHT22;22382;44.768;17.206;2023-02-01T09:15:05;7.00;68.30
36352;DHT22;22382;44.768;17.206;2023-02-01T09:17:34;7.10;66.90
36352;DHT22;22382;44.768;17.206;2023-02-01T09:20:02;7.20;66.90
36352;DHT22;22382;44.768;17.206;2023-02-01T09:22:29;7.40;67.80
36352;DHT22;22382;44.768;17.206;2023-02-01T09:24:56;7.50;66.90
36352;DHT22;22382;44.768;17.206;2023-02-01T09:27:23;7.70;65.90
36352;DHT22;22382;44.768;17.206;2023-02-01T09:29:51;7.60;64.60
36352;DHT22;22382;44.768;17.206;2023-02-01T09:32:20;7.80;64.70
36352;DHT22;22382;44.768;17.206;2023-02-01T09:34:49;7.70;64.70
36352;DHT22;22382;44.768;17.206;2023-02-01T09:37:16;7.90;66.40
36352;DHT22;22382;44.768;17.206;2023-02-01T09:39:43;8.00;66.30
36352;DHT22;22382;44.768;17.206;2023-02-01T09:42:23;8.20;66.00
36352;DHT22;22382;44.768;17.206;2023-02-01T09:47:26;8.50;64.20
36352;DHT22;22382;44.768;17.206;2023-02-01T09:50:04;8.60;64.40
36352;DHT22;22382;44.768;17.206;2023-02-01T09:52:57;8.60;63.50
36352;DHT22;22382;44.768;17.206;2023-02-01T09:58:14;8.70;62.20
36352;DHT22;22382;44.768;17.206;2023-02-01T10:00:55;8.90;61.70
36352;DHT22;22382;44.768;17.206;2023-02-01T10:03:29;9.10;61.60
36352;DHT22;22382;44.768;17.206;2023-02-01T10:15:24;9.60;60.00
36352;DHT22;22382;44.768;17.206;2023-02-01T10:18:32;9.80;59.30
36352;DHT22;22382;44.768;17.206;2023-02-01T10:26:20;10.70;58.20
36352;DHT22;22382;44.768;17.206;2023-02-01T10:28:53;10.80;56.90
36352;DHT22;22382;44.768;17.206;2023-02-01T10:31:25;10.90;56.30
36352;DHT22;22382;44.768;17.206;2023-02-01T10:34:01;11.00;55.60
36352;DHT22;22382;44.768;17.206;2023-02-01T10:36:35;11.20;54.40
36352;DHT22;22382;44.768;17.206;2023-02-01T10:39:05;11.40;53.40
36352;DHT22;22382;44.768;17.206;2023-02-01T10:41:39;11.40;54.10
36352;DHT22;22382;44.768;17.206;2023-02-01T10:44:16;11.60;53.60
36352;DHT22;22382;44.768;17.206;2023-02-01T10:46:44;11.20;53.60
36352;DHT22;22382;44.768;17.206;2023-02-01T10:49:36;11.20;53.40
36352;DHT22;22382;44.768;17.206;2023-02-01T10:54:42;11.40;53.60
36352;DHT22;22382;44.768;17.206;2023-02-01T10:57:19;11.40;53.50
36352;DHT22;22382;44.768;17.206;2023-02-01T10:59:46;11.50;54.50
36352;DHT22;22382;44.768;17.206;2023-02-01T11:02:29;11.40;52.70
36352;DHT22;22382;44.768;17.206;2023-02-01T11:05:07;11.50;54.80
36352;DHT22;22382;44.768;17.206;2023-02-01T11:07:40;11.40;52.90
36352;DHT22;22382;44.768;17.206;2023-02-01T11:10:40;11.40;52.40
36352;DHT22;22382;44.768;17.206;2023-02-01T11:13:18;11.40;52.40
36352;DHT22;22382;44.768;17.206;2023-02-01T11:15:47;11.50;50.30
36352;DHT22;22382;44.768;17.206;2023-02-01T11:18:28;11.60;50.70
36352;DHT22;22382;44.768;17.206;2023-02-01T11:20:56;11.80;49.50
36352;DHT22;22382;44.768;17.206;2023-02-01T11:23:25;11.90;51.10
36352;DHT22;22382;44.768;17.206;2023-02-01T11:25:56;12.20;49.80
36352;DHT22;22382;44.768;17.206;2023-02-01T11:28:28;12.50;50.80
36352;DHT22;22382;44.768;17.206;2023-02-01T11:30:59;12.70;50.10
36352;DHT22;22382;44.768;17.206;2023-02-01T11:33:33;12.70;49.10
36352;DHT22;22382;44.768;17.206;2023-02-01T11:36:18;12.80;51.60
36352;DHT22;22382;44.768;17.206;2023-02-01T11:39:07;12.80;50.50
36352;DHT22;22382;44.768;17.206;2023-02-01T11:41:42;12.90;49.40
36352;DHT22;22382;44.768;17.206;2023-02-01T11:44:26;12.90;48.40
36352;DHT22;22382;44.768;17.206;2023-02-01T11:46:56;12.80;49.20
36352;DHT22;22382;44.768;17.206;2023-02-01T11:49:31;12.80;48.50
36352;DHT22;22382;44.768;17.206;2023-02-01T12:03:28;13.40;49.10
36352;DHT22;22382;44.768;17.206;2023-02-01T12:06:23;13.50;48.30
36352;DHT22;22382;44.768;17.206;2023-02-01T12:14:54;13.40;45.60
36352;DHT22;22382;44.768;17.206;2023-02-01T12:25:36;13.50;47.00
36352;DHT22;22382;44.768;17.206;2023-02-01T12:28:16;13.50;48.20
36352;DHT22;22382;44.768;17.206;2023-02-01T12:31:11;13.40;46.80
36352;DHT22;22382;44.768;17.206;2023-02-01T12:34:04;13.30;46.00
36352;DHT22;22382;44.768;17.206;2023-02-01T12:39:32;13.50;46.10
36352;DHT22;22382;44.768;17.206;2023-02-01T12:45:25;13.20;47.80
36352;DHT22;22382;44.768;17.206;2023-02-01T12:48:42;13.20;48.10
36352;DHT22;22382;44.768;17.206;2023-02-01T12:50:53;13.20;48.30
36352;DHT22;22382;44.768;17.206;2023-02-01T12:56:11;13.10;48.60
36352;DHT22;22382;44.768;17.206;2023-02-01T12:58:46;13.00;48.30
36352;DHT22;22382;44.768;17.206;2023-02-01T13:06:51;12.90;50.90
36352;DHT22;22382;44.768;17.206;2023-02-01T13:09:27;12.90;51.20
36352;DHT22;22382;44.768;17.206;2023-02-01T13:12:04;12.90;50.40
36352;DHT22;22382;44.768;17.206;2023-02-01T13:14:42;12.90;50.80
36352;DHT22;22382;44.768;17.206;2023-02-01T13:17:22;12.90;51.10
36352;DHT22;22382;44.768;17.206;2023-02-01T13:20:45;12.80;51.40
36352;DHT22;22382;44.768;17.206;2023-02-01T13:23:22;12.80;52.80
36352;DHT22;22382;44.768;17.206;2023-02-01T13:25:52;12.80;52.00
36352;DHT22;22382;44.768;17.206;2023-02-01T13:28:47;12.60;53.00
36352;DHT22;22382;44.768;17.206;2023-02-01T13:37:43;12.30;53.20
36352;DHT22;22382;44.768;17.206;2023-02-01T13:40:44;12.10;52.50
36352;DHT22;22382;44.768;17.206;2023-02-01T13:43:25;12.10;53.50
36352;DHT22;22382;44.768;17.206;2023-02-01T13:45:57;12.10;53.00
36352;DHT22;22382;44.768;17.206;2023-02-01T13:48:59;12.00;53.10
36352;DHT22;22382;44.768;17.206;2023-02-01T13:51:45;12.00;53.90
36352;DHT22;22382;44.768;17.206;2023-02-01T13:54:31;11.90;53.70
36352;DHT22;22382;44.768;17.206;2023-02-01T13:57:00;11.80;54.30
36352;DHT22;22382;44.768;17.206;2023-02-01T14:05:54;11.60;54.60
36352;DHT22;22382;44.768;17.206;2023-02-01T14:13:22;11.40;56.00
36352;DHT22;22382;44.768;17.206;2023-02-01T14:16:16;11.40;57.50
36352;DHT22;22382;44.768;17.206;2023-02-01T14:24:24;11.10;58.50
36352;DHT22;22382;44.768;17.206;2023-02-01T14:26:52;11.00;59.10
36352;DHT22;22382;44.768;17.206;2023-02-01T14:29:32;10.80;59.00
36352;DHT22;22382;44.768;17.206;2023-02-01T14:32:20;10.80;59.10
36352;DHT22;22382;44.768;17.206;2023-02-01T14:47:52;10.50;60.60
36352;DHT22;22382;44.768;17.206;2023-02-01T15:01:28;10.10;61.70
36352;DHT22;22382;44.768;17.206;2023-02-01T15:04:13;10.10;61.40
36352;DHT22;22382;44.768;17.206;2023-02-01T15:06:42;10.00;61.30
36352;DHT22;22382;44.768;17.206;2023-02-01T15:09:18;10.00;61.40
36352;DHT22;22382;44.768;17.206;2023-02-01T15:12:17;9.90;61.10
36352;DHT22;22382;44.768;17.206;2023-02-01T15:17:34;9.90;61.80
36352;DHT22;22382;44.768;17.206;2023-02-01T15:20:25;9.90;62.60
36352;DHT22;22382;44.768;17.206;2023-02-01T15:23:04;9.90;63.40
36352;DHT22;22382;44.768;17.206;2023-02-01T15:25:34;9.80;63.70
36352;DHT22;22382;44.768;17.206;2023-02-01T15:28:04;9.70;64.60
36352;DHT22;22382;44.768;17.206;2023-02-01T15:30:34;9.60;64.40
36352;DHT22;22382;44.768;17.206;2023-02-01T15:33:06;9.50;64.80
36352;DHT22;22382;44.768;17.206;2023-02-01T15:41:19;9.30;66.60
36352;DHT22;22382;44.768;17.206;2023-02-01T15:44:05;9.10;67.70
36352;DHT22;22382;44.768;17.206;2023-02-01T15:46:40;9.00;67.10
36352;DHT22;22382;44.768;17.206;2023-02-01T15:49:39;8.90;66.80
36352;DHT22;22382;44.768;17.206;2023-02-01T15:52:21;8.80;67.60
36352;DHT22;22382;44.768;17.206;2023-02-01T15:54:52;8.70;67.30
36352;DHT22;22382;44.768;17.206;2023-02-01T15:57:29;8.60;67.00
36352;DHT22;22382;44.768;17.206;2023-02-01T16:00:04;8.60;67.40
36352;DHT22;22382;44.768;17.206;2023-02-01T16:02:36;8.50;67.30
36352;DHT22;22382;44.768;17.206;2023-02-01T16:05:31;8.50;67.90
36352;DHT22;22382;44.768;17.206;2023-02-01T16:08:15;8.40;67.00
36352;DHT22;22382;44.768;17.206;2023-02-01T16:10:48;8.40;66.80
36352;DHT22;22382;44.768;17.206;2023-02-01T16:13:18;8.30;67.60
36352;DHT22;22382;44.768;17.206;2023-02-01T16:15:46;8.20;68.00
36352;DHT22;22382;44.768;17.206;2023-02-01T16:18:14;8.10;70.30
36352;DHT22;22382;44.768;17.206;2023-02-01T16:20:45;8.10;69.00
36352;DHT22;22382;44.768;17.206;2023-02-01T16:23:13;8.00;69.80
36352;DHT22;22382;44.768;17.206;2023-02-01T16:25:41;7.90;72.20
36352;DHT22;22382;44.768;17.206;2023-02-01T16:28:08;7.80;73.00
36352;DHT22;22382;44.768;17.206;2023-02-01T16:30:35;7.70;74.10
36352;DHT22;22382;44.768;17.206;2023-02-01T16:33:03;7.60;75.20
36352;DHT22;22382;44.768;17.206;2023-02-01T16:35:34;7.50;76.00
36352;DHT22;22382;44.768;17.206;2023-02-01T16:38:03;7.30;76.70
36352;DHT22;22382;44.768;17.206;2023-02-01T16:40:35;7.20;76.90
36352;DHT22;22382;44.768;17.206;2023-02-01T16:43:15;7.10;78.30
36352;DHT22;22382;44.768;17.206;2023-02-01T16:45:44;7.00;79.20
36352;DHT22;22382;44.768;17.206;2023-02-01T16:48:30;6.90;80.50
36352;DHT22;22382;44.768;17.206;2023-02-01T16:51:00;6.70;82.50
36352;DHT22;22382;44.768;17.206;2023-02-01T16:53:30;6.60;85.70
36352;DHT22;22382;44.768;17.206;2023-02-01T16:56:14;6.50;88.90
36352;DHT22;22382;44.768;17.206;2023-02-01T16:58:42;6.40;91.20
36352;DHT22;22382;44.768;17.206;2023-02-01T17:01:12;6.30;92.50
36352;DHT22;22382;44.768;17.206;2023-02-01T17:03:40;6.30;94.30
36352;DHT22;22382;44.768;17.206;2023-02-01T17:06:10;6.20;95.20
36352;DHT22;22382;44.768;17.206;2023-02-01T17:08:41;6.10;97.20
36352;DHT22;22382;44.768;17.206;2023-02-01T17:11:10;6.10;98.80
36352;DHT22;22382;44.768;17.206;2023-02-01T17:13:37;6.00;99.90
36352;DHT22;22382;44.768;17.206;2023-02-01T17:16:30;6.00;99.90
36352;DHT22;22382;44.768;17.206;2023-02-01T17:18:57;5.90;99.90
36352;DHT22;22382;44.768;17.206;2023-02-01T17:21:27;5.80;99.90
36352;DHT22;22382;44.768;17.206;2023-02-01T17:23:56;5.70;99.90
36352;DHT22;22382;44.768;17.206;2023-02-01T17:26:25;5.70;99.90
36352;DHT22;22382;44.768;17.206;2023-02-01T17:28:53;5.70;99.90
36352;DHT22;22382;44.768;17.206;2023-02-01T17:31:20;5.60;99.90
36352;DHT22;22382;44.768;17.206;2023-02-01T17:33:47;5.60;99.90
36352;DHT22;22382;44.768;17.206;2023-02-01T17:36:16;5.50;99.90
36352;DHT22;22382;44.768;17.206;2023-02-01T17:38:44;5.50;99.90
36352;DHT22;22382;44.768;17.206;2023-02-01T17:41:25;5.40;99.90
36352;DHT22;22382;44.768;17.206;2023-02-01T17:43:52;5.40;99.90
36352;DHT22;22382;44.768;17.206;2023-02-01T17:46:20;5.30;99.90
36352;DHT22;22382;44.768;17.206;2023-02-01T17:48:53;5.30;99.90
36352;DHT22;22382;44.768;17.206;2023-02-01T17:51:24;5.20;99.90
36352;DHT22;22382;44.768;17.206;2023-02-01T17:53:53;5.20;99.90
36352;DHT22;22382;44.768;17.206;2023-02-01T17:56:22;5.20;99.90
36352;DHT22;22382;44.768;17.206;2023-02-01T17:58:50;5.10;99.90
36352;DHT22;22382;44.768;17.206;2023-02-01T18:01:22;5.10;99.90
36352;DHT22;22382;44.768;17.206;2023-02-01T18:03:50;5.00;99.90
36352;DHT22;22382;44.768;17.206;2023-02-01T18:06:24;5.00;99.90
36352;DHT22;22382;44.768;17.206;2023-02-01T18:08:57;4.90;99.90
36352;DHT22;22382;44.768;17.206;2023-02-01T18:11:24;4.80;99.90
36352;DHT22;22382;44.768;17.206;2023-02-01T18:13:52;4.80;99.90
36352;DHT22;22382;44.768;17.206;2023-02-01T18:16:24;4.80;99.90
36352;DHT22;22382;44.768;17.206;2023-02-01T18:18:52;4.70;99.90
36352;DHT22;22382;44.768;17.206;2023-02-01T18:21:21;4.70;99.90
36352;DHT22;22382;44.768;17.206;2023-02-01T18:23:49;4.60;99.90
36352;DHT22;22382;44.768;17.206;2023-02-01T18:26:17;4.60;99.90
36352;DHT22;22382;44.768;17.206;2023-02-01T18:28:44;4.60;99.90